createdAt,value
2023-07-20T00:00:27.608Z,15.43
2023-07-20T00:03:12.486Z,15.30
2023-07-20T00:05:40.610Z,15.24
2023-07-20T00:08:08.677Z,15.37
2023-07-20T00:10:38.051Z,15.34
2023-07-20T00:13:07.045Z,15.30
2023-07-20T00:15:35.182Z,15.32
2023-07-20T00:18:06.016Z,15.31
2023-07-20T00:20:34.096Z,15.15
2023-07-20T00:23:02.145Z,15.18
2023-07-20T00:25:30.208Z,15.03
2023-07-20T00:27:59.599Z,15.06
2023-07-20T00:30:27.701Z,15.11
2023-07-20T00:32:58.845Z,15.07
2023-07-20T00:35:26.959Z,15.00
2023-07-20T00:37:55.464Z,15.06
2023-07-20T00:40:25.975Z,14.96
2023-07-20T00:42:53.967Z,14.91
2023-07-20T00:45:28.120Z,14.87
2023-07-20T00:47:59.403Z,14.84
2023-07-20T00:50:29.073Z,14.70
2023-07-20T00:52:57.762Z,14.67
2023-07-20T00:55:26.078Z,14.80
2023-07-20T00:57:55.198Z,14.77
2023-07-20T01:00:23.383Z,14.74
2023-07-20T01:02:54.506Z,14.49
2023-07-20T01:05:23.876Z,14.61
2023-07-20T01:07:58.210Z,14.60
2023-07-20T01:10:34.755Z,14.62
2023-07-20T01:13:04.034Z,14.50
2023-07-20T01:15:32.865Z,14.46
2023-07-20T01:18:02.534Z,14.31
2023-07-20T01:20:33.552Z,14.52
2023-07-20T01:23:28.416Z,14.51
2023-07-20T01:26:35.844Z,14.46
2023-07-20T01:29:24.904Z,14.12
2023-07-20T01:31:56.530Z,14.38
2023-07-20T01:34:27.037Z,14.34
2023-07-20T01:36:58.941Z,14.08
2023-07-20T01:39:27.520Z,14.19
2023-07-20T01:41:55.718Z,14.31
2023-07-20T01:44:23.706Z,14.19
2023-07-20T01:46:51.727Z,14.19
2023-07-20T01:49:21.115Z,14.44
2023-07-20T01:51:49.138Z,14.42
2023-07-20T01:54:19.024Z,14.55
2023-07-20T01:56:50.359Z,14.57
2023-07-20T01:59:18.446Z,14.32
2023-07-20T02:01:46.504Z,14.47
2023-07-20T02:04:14.654Z,14.63
2023-07-20T02:06:44.058Z,14.58
2023-07-20T02:09:13.122Z,13.30
2023-07-20T02:11:42.575Z,14.63
2023-07-20T02:14:10.532Z,14.62
2023-07-20T02:16:38.705Z,14.57
2023-07-20T02:19:08.107Z,14.50
2023-07-20T02:21:36.130Z,14.27
2023-07-20T02:24:07.955Z,14.48
2023-07-20T02:26:36.036Z,14.42
2023-07-20T02:29:05.761Z,14.23
2023-07-20T02:31:33.854Z,14.42
2023-07-20T02:34:01.896Z,14.18
2023-07-20T02:36:29.920Z,14.30
2023-07-20T02:38:58.097Z,14.15
2023-07-20T02:41:27.793Z,14.26
2023-07-20T02:43:55.786Z,14.22
2023-07-20T02:46:24.066Z,14.22
2023-07-20T02:48:52.296Z,13.96
2023-07-20T02:51:20.277Z,14.23
2023-07-20T02:53:48.326Z,14.41
2023-07-20T02:56:16.784Z,14.45
2023-07-20T02:58:47.093Z,14.30
2023-07-20T03:01:16.524Z,14.43
2023-07-20T03:03:47.694Z,14.43
2023-07-20T03:06:16.230Z,14.43
2023-07-20T03:08:48.307Z,14.54
2023-07-20T03:11:16.661Z,14.59
2023-07-20T03:13:46.973Z,14.57
2023-07-20T03:16:17.030Z,14.42
2023-07-20T03:18:45.372Z,14.54
2023-07-20T03:21:14.154Z,14.48
2023-07-20T03:23:45.773Z,14.56
2023-07-20T03:26:13.736Z,14.37
2023-07-20T03:28:41.987Z,14.30
2023-07-20T03:31:13.731Z,14.62
2023-07-20T03:33:43.590Z,14.62
2023-07-20T03:36:12.167Z,14.68
2023-07-20T03:38:42.324Z,14.69
2023-07-20T03:41:10.445Z,14.63
2023-07-20T03:43:38.486Z,14.75
2023-07-20T03:46:08.245Z,14.63
2023-07-20T03:48:37.787Z,14.83
2023-07-20T03:51:05.839Z,14.73
2023-07-20T03:53:34.053Z,14.81
2023-07-20T03:56:02.127Z,14.79
2023-07-20T03:58:31.141Z,14.73
2023-07-20T04:01:00.035Z,14.70
2023-07-20T04:03:28.510Z,14.60
2023-07-20T04:05:57.977Z,14.46
2023-07-20T04:08:26.511Z,14.84
2023-07-20T04:10:54.588Z,14.96
2023-07-20T04:13:22.741Z,14.85
2023-07-20T04:15:50.732Z,14.88
2023-07-20T04:18:18.795Z,14.93
2023-07-20T04:20:47.788Z,14.77
2023-07-20T04:23:17.768Z,14.68
2023-07-20T04:25:46.196Z,14.42
2023-07-20T04:28:15.475Z,14.47
2023-07-20T04:30:51.817Z,14.45
2023-07-20T04:33:20.397Z,14.16
2023-07-20T04:35:53.546Z,13.99
2023-07-20T04:38:32.432Z,13.69
2023-07-20T04:41:07.952Z,13.71
2023-07-20T04:43:43.582Z,13.49
2023-07-20T04:46:12.784Z,13.41
2023-07-20T04:48:41.750Z,13.43
2023-07-20T04:51:11.378Z,13.41
2023-07-20T04:53:41.944Z,13.43
2023-07-20T04:56:12.170Z,13.22
2023-07-20T04:58:40.505Z,13.20
2023-07-20T05:01:13.426Z,13.40
2023-07-20T05:03:42.072Z,13.11
2023-07-20T05:06:17.799Z,13.43
2023-07-20T05:08:49.519Z,13.43
2023-07-20T05:11:19.376Z,13.33
2023-07-20T05:13:47.517Z,13.38
2023-07-20T05:16:15.975Z,13.55
2023-07-20T05:18:48.137Z,13.53
2023-07-20T05:21:16.292Z,13.07
2023-07-20T05:23:44.447Z,13.69
2023-07-20T05:26:15.052Z,13.53
2023-07-20T05:28:43.032Z,13.70
2023-07-20T05:31:11.129Z,13.59
2023-07-20T05:33:42.189Z,13.57
2023-07-20T05:36:10.454Z,13.74
2023-07-20T05:38:38.635Z,13.76
2023-07-20T05:41:11.395Z,13.77
2023-07-20T05:43:40.754Z,13.79
2023-07-20T05:46:08.793Z,13.53
2023-07-20T05:48:37.056Z,13.88
2023-07-20T05:51:05.436Z,13.89
2023-07-20T05:53:33.642Z,13.92
2023-07-20T05:56:01.650Z,13.89
2023-07-20T05:58:29.604Z,13.91
2023-07-20T06:00:59.119Z,13.94
2023-07-20T06:03:27.255Z,13.96
2023-07-20T06:06:01.257Z,14.02
2023-07-20T06:08:29.972Z,14.02
2023-07-20T06:10:58.433Z,14.15
2023-07-20T06:13:26.343Z,14.27
2023-07-20T06:15:54.680Z,14.29
2023-07-20T06:18:24.721Z,14.45
2023-07-20T06:20:53.081Z,14.51
2023-07-20T06:23:21.512Z,14.47
2023-07-20T06:25:49.854Z,14.37
2023-07-20T06:28:19.113Z,14.48
2023-07-20T06:30:47.128Z,14.65
2023-07-20T06:33:15.220Z,14.64
2023-07-20T06:35:45.109Z,14.78
2023-07-20T06:40:44.095Z,14.80
2023-07-20T06:45:43.232Z,14.82
2023-07-20T06:48:11.916Z,14.70
2023-07-20T06:50:39.971Z,14.77
2023-07-20T06:53:09.351Z,15.03
2023-07-20T06:55:41.098Z,15.34
2023-07-20T06:58:11.113Z,15.84
2023-07-20T07:00:39.352Z,16.17
2023-07-20T07:03:08.259Z,16.40
2023-07-20T07:05:38.654Z,16.13
2023-07-20T07:08:07.265Z,16.05
2023-07-20T07:10:37.945Z,15.87
2023-07-20T07:13:06.316Z,15.84
2023-07-20T07:15:34.490Z,16.03
2023-07-20T07:18:04.608Z,16.35
2023-07-20T07:20:32.790Z,16.29
2023-07-20T07:23:01.557Z,16.83
2023-07-20T07:25:29.617Z,17.16
2023-07-20T07:27:58.992Z,17.27
2023-07-20T07:30:27.121Z,17.56
2023-07-20T07:32:55.357Z,17.62
2023-07-20T07:35:23.735Z,17.73
2023-07-20T07:38:05.140Z,17.33
2023-07-20T07:40:37.903Z,17.02
2023-07-20T07:43:07.192Z,17.23
2023-07-20T07:45:37.842Z,17.57
2023-07-20T07:48:06.639Z,17.95
2023-07-20T07:50:35.087Z,18.09
2023-07-20T07:53:04.089Z,17.97
2023-07-20T07:55:35.148Z,17.65
2023-07-20T07:58:03.179Z,17.37
2023-07-20T08:00:32.622Z,16.55
2023-07-20T08:03:00.790Z,16.88
2023-07-20T08:05:28.917Z,16.63
2023-07-20T08:07:56.925Z,17.01
2023-07-20T08:10:25.094Z,17.94
2023-07-20T08:12:53.346Z,19.80
2023-07-20T08:15:21.408Z,21.54
2023-07-20T08:17:53.148Z,22.41
2023-07-20T08:20:27.418Z,20.88
2023-07-20T08:22:56.468Z,19.46
2023-07-20T08:25:24.552Z,20.17
2023-07-20T08:27:52.571Z,20.43
2023-07-20T08:30:24.497Z,20.02
2023-07-20T08:32:54.069Z,20.04
2023-07-20T08:35:22.931Z,20.14
2023-07-20T08:37:51.323Z,20.38
2023-07-20T08:40:19.474Z,20.17
2023-07-20T08:42:48.408Z,20.48
2023-07-20T08:45:19.319Z,20.78
2023-07-20T08:47:49.624Z,22.89
2023-07-20T08:50:19.240Z,23.32
2023-07-20T08:52:47.291Z,24.09
2023-07-20T08:55:15.522Z,25.90
2023-07-20T08:57:46.962Z,24.53
2023-07-20T09:00:16.150Z,22.09
2023-07-20T09:02:47.463Z,21.60
2023-07-20T09:05:15.690Z,20.82
2023-07-20T09:07:45.141Z,20.28
2023-07-20T09:10:14.598Z,19.85
2023-07-20T09:12:44.370Z,19.57
2023-07-20T09:15:13.216Z,19.77
2023-07-20T09:17:41.316Z,20.00
2023-07-20T09:20:11.999Z,19.99
2023-07-20T09:22:41.590Z,19.78
2023-07-20T09:25:14.185Z,20.11
2023-07-20T09:27:44.264Z,20.23
2023-07-20T09:30:18.146Z,20.59
2023-07-20T09:38:23.471Z,20.31
2023-07-20T09:50:55.471Z,20.84
2023-07-20T09:53:23.522Z,21.14
2023-07-20T09:55:54.887Z,21.05
2023-07-20T09:58:24.308Z,21.04
2023-07-20T10:00:55.046Z,21.11
2023-07-20T10:03:24.652Z,21.59
2023-07-20T10:05:58.588Z,21.38
2023-07-20T10:11:02.564Z,20.84
2023-07-20T10:13:32.133Z,21.04
2023-07-20T10:16:05.265Z,21.62
2023-07-20T10:18:40.797Z,21.73
2023-07-20T10:23:41.530Z,20.92
2023-07-20T10:26:12.237Z,20.96
2023-07-20T10:28:41.199Z,20.99
2023-07-20T10:31:11.715Z,20.73
2023-07-20T10:33:40.593Z,20.54
2023-07-20T10:36:08.819Z,20.76
2023-07-20T10:38:44.352Z,20.60
2023-07-20T10:41:21.310Z,20.51
2023-07-20T10:43:50.610Z,20.25
2023-07-20T10:46:46.907Z,20.84
2023-07-20T10:49:16.618Z,20.89
2023-07-20T10:51:46.414Z,21.36
2023-07-20T10:54:36.704Z,21.79
2023-07-20T10:57:30.120Z,21.61
2023-07-20T11:00:11.580Z,21.49
2023-07-20T11:02:48.191Z,21.20
2023-07-20T11:05:41.115Z,21.50
2023-07-20T11:08:13.286Z,21.60
2023-07-20T11:10:41.983Z,21.90
2023-07-20T11:13:22.284Z,21.99
2023-07-20T11:16:04.577Z,22.73
2023-07-20T11:18:35.141Z,22.97
2023-07-20T11:21:03.546Z,23.49
2023-07-20T11:23:34.977Z,23.54
2023-07-20T11:26:05.015Z,23.46
2023-07-20T11:28:36.361Z,23.07
2023-07-20T11:31:04.549Z,22.10
2023-07-20T11:33:32.560Z,22.29
2023-07-20T11:37:11.442Z,23.08
2023-07-20T11:38:51.300Z,23.15
2023-07-20T11:41:19.394Z,22.87
2023-07-20T11:43:49.602Z,22.94
2023-07-20T11:46:18.119Z,23.91
2023-07-20T11:48:46.127Z,24.84
2023-07-20T11:51:18.039Z,24.86
2023-07-20T11:53:48.212Z,24.75
2023-07-20T11:56:16.288Z,25.20
2023-07-20T11:58:45.553Z,26.27
2023-07-20T12:01:15.835Z,27.10
2023-07-20T12:03:45.313Z,27.59
2023-07-20T12:06:13.684Z,27.68
2023-07-20T12:08:42.913Z,28.18
2023-07-20T12:11:11.200Z,28.56
2023-07-20T12:13:40.124Z,26.70
2023-07-20T12:16:13.819Z,26.65
2023-07-20T12:18:43.702Z,25.43
2023-07-20T12:21:12.750Z,24.93
2023-07-20T12:23:42.113Z,25.24
2023-07-20T12:26:11.240Z,24.53
2023-07-20T12:28:43.066Z,23.78
2023-07-20T12:31:11.927Z,23.53
2023-07-20T12:33:40.157Z,23.28
2023-07-20T12:36:10.687Z,23.59
2023-07-20T12:38:38.842Z,24.79
2023-07-20T12:41:06.749Z,26.04
2023-07-20T12:43:35.128Z,26.77
2023-07-20T12:46:03.496Z,27.00
2023-07-20T12:48:31.527Z,27.60
2023-07-20T12:50:59.664Z,27.98
2023-07-20T12:53:29.340Z,28.34
2023-07-20T12:55:57.350Z,28.89
2023-07-20T12:58:25.836Z,29.10
2023-07-20T13:00:54.310Z,29.04
2023-07-20T13:08:26.440Z,25.06
2023-07-20T13:10:56.126Z,25.06
2023-07-20T13:13:24.161Z,24.86
2023-07-20T13:15:52.212Z,26.09
2023-07-20T13:18:20.703Z,26.79
2023-07-20T13:20:48.761Z,26.10
2023-07-20T13:23:16.984Z,25.72
2023-07-20T13:25:45.125Z,27.22
2023-07-20T13:28:15.126Z,28.46
2023-07-20T13:30:43.451Z,28.02
2023-07-20T13:33:14.087Z,26.46
2023-07-20T13:38:17.247Z,24.86
2023-07-20T13:40:46.197Z,24.01
2023-07-20T13:43:15.533Z,23.79
2023-07-20T13:45:43.993Z,23.28
2023-07-20T13:48:12.151Z,23.01
2023-07-20T13:50:43.407Z,22.78
2023-07-20T13:58:32.298Z,26.36
2023-07-20T14:01:00.674Z,27.17
2023-07-20T14:03:28.777Z,28.12
2023-07-20T14:08:31.032Z,27.74
2023-07-20T14:13:45.796Z,26.54
2023-07-20T14:16:16.765Z,25.10
2023-07-20T14:18:49.585Z,24.88
2023-07-20T14:21:18.893Z,25.99
2023-07-20T14:23:48.401Z,26.65
2023-07-20T14:26:16.424Z,25.42
2023-07-20T14:28:44.535Z,24.76
2023-07-20T14:31:12.578Z,24.37
2023-07-20T14:33:42.207Z,23.78
2023-07-20T14:38:39.722Z,23.39
2023-07-20T14:41:08.074Z,23.64
2023-07-20T14:43:36.129Z,24.47
2023-07-20T14:46:04.090Z,24.97
2023-07-20T14:48:34.613Z,25.33
2023-07-20T14:51:05.718Z,25.31
2023-07-20T14:53:37.245Z,25.32
2023-07-20T14:56:05.977Z,25.38
2023-07-20T14:58:35.614Z,24.96
2023-07-20T15:01:05.197Z,24.28
2023-07-20T15:03:33.813Z,23.96
2023-07-20T15:06:02.028Z,23.66
2023-07-20T15:08:32.403Z,23.19
2023-07-20T15:11:00.480Z,23.45
2023-07-20T15:13:28.820Z,23.42
2023-07-20T15:15:56.895Z,23.32
2023-07-20T15:18:37.650Z,23.18
2023-07-20T15:21:12.921Z,22.84
2023-07-20T15:23:42.256Z,22.90
2023-07-20T15:26:12.205Z,22.85
2023-07-20T15:28:41.222Z,22.47
2023-07-20T15:31:09.283Z,22.73
2023-07-20T15:33:37.387Z,22.78
2023-07-20T15:36:06.085Z,22.94
2023-07-20T15:38:34.302Z,22.35
2023-07-20T15:41:04.883Z,22.41
2023-07-20T15:43:33.050Z,22.42
2023-07-20T15:46:12.484Z,22.25
2023-07-20T15:48:42.930Z,22.15
2023-07-20T15:51:12.321Z,21.89
2023-07-20T15:53:40.269Z,21.77
2023-07-20T15:56:09.697Z,21.38
2023-07-20T15:58:38.199Z,21.14
2023-07-20T16:01:06.947Z,20.96
2023-07-20T16:03:38.109Z,20.89
2023-07-20T16:06:06.744Z,20.69
2023-07-20T16:08:35.019Z,20.66
2023-07-20T16:11:04.254Z,20.39
2023-07-20T16:13:33.724Z,20.10
2023-07-20T16:16:01.792Z,20.18
2023-07-20T16:18:29.859Z,20.26
2023-07-20T16:20:59.640Z,20.22
2023-07-20T16:23:27.759Z,20.24
2023-07-20T16:25:55.719Z,20.24
2023-07-20T16:28:23.810Z,20.19
2023-07-20T16:30:53.296Z,20.21
2023-07-20T16:33:21.366Z,20.34
2023-07-20T16:35:52.082Z,20.16
2023-07-20T16:38:20.065Z,20.23
2023-07-20T16:44:05.870Z,20.46
2023-07-20T16:51:13.019Z,20.32
2023-07-20T16:53:40.995Z,20.34
2023-07-20T16:56:08.946Z,20.47
2023-07-20T16:58:36.915Z,20.45
2023-07-20T17:01:07.639Z,20.28
2023-07-20T17:03:37.158Z,20.70
2023-07-20T17:06:06.577Z,20.75
2023-07-20T17:08:34.785Z,21.02
2023-07-20T17:11:02.975Z,21.03
2023-07-20T17:13:31.051Z,20.94
2023-07-20T17:15:59.070Z,20.76
2023-07-20T17:18:27.128Z,20.49
2023-07-20T17:20:56.582Z,20.60
2023-07-20T17:31:00.725Z,20.17
2023-07-20T17:33:29.132Z,19.50
2023-07-20T17:41:00.494Z,19.77
2023-07-20T17:43:28.534Z,19.83
2023-07-20T17:48:44.683Z,19.58
2023-07-20T17:51:14.100Z,19.45
2023-07-20T17:53:42.161Z,19.43
2023-07-20T17:56:10.426Z,19.38
2023-07-20T17:58:38.398Z,19.34
2023-07-20T18:01:06.433Z,19.25
2023-07-20T18:03:34.450Z,19.14
2023-07-20T18:06:07.981Z,19.12
2023-07-20T18:08:38.726Z,19.11
2023-07-20T18:11:06.992Z,19.06
2023-07-20T18:13:35.020Z,19.03
2023-07-20T18:16:03.158Z,18.82
2023-07-20T18:18:31.606Z,18.80
2023-07-20T18:20:59.648Z,18.92
2023-07-20T18:23:27.663Z,18.89
2023-07-20T18:25:56.974Z,18.66
2023-07-20T18:28:24.990Z,18.64
2023-07-20T18:30:53.020Z,18.70
2023-07-20T18:33:21.034Z,18.65
2023-07-20T18:35:49.341Z,18.54
2023-07-20T18:38:18.009Z,18.46
2023-07-20T18:40:45.989Z,18.36
2023-07-20T18:43:15.390Z,18.38
2023-07-20T18:45:44.361Z,18.32
2023-07-20T18:48:12.827Z,18.28
2023-07-20T18:50:40.796Z,18.24
2023-07-20T18:53:08.748Z,18.11
2023-07-20T18:55:37.240Z,18.14
2023-07-20T18:58:05.439Z,18.07
2023-07-20T19:00:34.893Z,18.10
2023-07-20T19:03:02.996Z,17.66
2023-07-20T19:05:31.050Z,17.93
2023-07-20T19:08:01.142Z,17.32
2023-07-20T19:11:54.984Z,17.89
2023-07-20T19:13:19.715Z,17.69
2023-07-20T19:15:53.350Z,17.75
2023-07-20T19:18:21.678Z,17.68
2023-07-20T19:20:49.752Z,17.51
2023-07-20T19:23:17.743Z,17.37
2023-07-20T19:25:45.890Z,17.43
2023-07-20T19:28:13.838Z,17.30
2023-07-20T19:30:41.820Z,17.11
2023-07-20T19:33:11.425Z,17.25
2023-07-20T19:35:39.430Z,17.16
2023-07-20T19:38:07.456Z,17.09
2023-07-20T19:40:35.664Z,17.01
2023-07-20T19:43:05.332Z,16.93
2023-07-20T19:45:33.270Z,16.77
2023-07-20T19:48:03.085Z,16.74
2023-07-20T19:50:32.577Z,16.77
2023-07-20T19:53:03.600Z,16.71
2023-07-20T19:55:33.768Z,16.55
2023-07-20T19:58:03.531Z,16.63
2023-07-20T20:05:38.677Z,16.11
2023-07-20T20:08:07.526Z,16.19
2023-07-20T20:13:08.874Z,15.97
2023-07-20T20:15:36.835Z,16.11
2023-07-20T20:18:05.341Z,15.99
2023-07-20T20:20:34.829Z,16.08
2023-07-20T20:23:03.467Z,16.12
2023-07-20T20:25:31.481Z,16.10
2023-07-20T20:27:59.500Z,15.99
2023-07-20T20:30:27.556Z,15.93
2023-07-20T20:32:55.645Z,15.91
2023-07-20T20:35:23.844Z,15.72
2023-07-20T20:37:53.163Z,15.80
2023-07-20T20:40:21.110Z,15.76
2023-07-20T20:42:50.937Z,15.77
2023-07-20T20:45:19.542Z,15.76
2023-07-20T20:47:47.626Z,15.72
2023-07-20T20:50:20.625Z,15.65
2023-07-20T20:52:48.759Z,15.54
2023-07-20T20:55:18.121Z,15.48
2023-07-20T20:57:47.997Z,15.35
2023-07-20T21:00:16.456Z,15.34
2023-07-20T21:02:46.585Z,15.15
2023-07-20T21:05:15.837Z,14.62
2023-07-20T21:07:43.951Z,14.80
2023-07-20T21:10:12.303Z,14.99
2023-07-20T21:12:41.744Z,14.97
2023-07-20T21:15:10.856Z,14.72
2023-07-20T21:17:39.602Z,14.67
2023-07-20T21:20:08.491Z,14.87
2023-07-20T21:22:37.675Z,14.70
2023-07-20T21:25:07.323Z,14.74
2023-07-20T21:27:35.570Z,14.59
2023-07-20T21:30:05.407Z,14.57
2023-07-20T21:32:33.407Z,14.62
2023-07-20T21:35:01.375Z,14.59
2023-07-20T21:37:29.558Z,14.54
2023-07-20T21:39:57.481Z,14.52
2023-07-20T21:42:25.668Z,14.51
2023-07-20T21:44:53.765Z,14.18
2023-07-20T21:47:23.124Z,14.47
2023-07-20T21:49:51.081Z,14.42
2023-07-20T21:52:19.085Z,14.38
2023-07-20T21:54:47.063Z,14.25
2023-07-20T21:57:15.039Z,14.42
2023-07-20T21:59:42.992Z,14.54
2023-07-20T22:02:11.029Z,14.41
2023-07-20T22:04:40.600Z,14.47
2023-07-20T22:07:14.960Z,14.58
2023-07-20T22:09:44.131Z,14.43
2023-07-20T22:12:12.694Z,14.58
2023-07-20T22:14:41.049Z,14.63
2023-07-20T22:17:09.859Z,14.69
2023-07-20T22:19:39.908Z,14.74
2023-07-20T22:22:08.709Z,14.74
2023-07-20T22:24:37.122Z,14.65
2023-07-20T22:27:05.486Z,14.82
2023-07-20T22:29:35.002Z,14.76
2023-07-20T22:32:03.954Z,14.63
2023-07-20T22:34:33.960Z,14.67
2023-07-20T22:37:05.516Z,14.80
2023-07-20T22:39:34.451Z,14.79
2023-07-20T22:42:03.154Z,14.80
2023-07-20T22:44:31.339Z,14.75
2023-07-20T22:47:00.280Z,14.83
2023-07-20T22:49:30.518Z,14.88
2023-07-20T22:51:59.044Z,14.78
2023-07-20T22:54:29.513Z,14.93
2023-07-20T22:56:58.204Z,14.83
2023-07-20T22:59:29.010Z,14.84
2023-07-20T23:01:57.351Z,14.98
2023-07-20T23:04:25.778Z,14.90
2023-07-20T23:06:54.139Z,15.03
2023-07-20T23:09:22.121Z,15.00
2023-07-20T23:11:51.436Z,15.05
2023-07-20T23:14:19.859Z,15.06
2023-07-20T23:16:47.844Z,15.08
2023-07-20T23:19:15.810Z,15.09
2023-07-20T23:21:44.329Z,15.02
2023-07-20T23:24:14.139Z,15.10
2023-07-20T23:26:43.275Z,15.00
2023-07-20T23:29:13.506Z,15.03
2023-07-20T23:31:41.671Z,15.04
2023-07-20T23:34:10.449Z,15.06
2023-07-20T23:36:38.663Z,14.89
2023-07-20T23:39:06.682Z,14.37
2023-07-20T23:41:36.420Z,15.07
2023-07-20T23:44:04.541Z,15.01
2023-07-20T23:46:34.639Z,14.87
2023-07-20T23:49:04.855Z,15.08
2023-07-20T23:51:32.810Z,15.01
2023-07-20T23:54:00.812Z,15.07
2023-07-20T23:56:30.219Z,15.01
2023-07-20T23:58:58.268Z,14.91
